Time;durP1;ratioP1;P1;durP2;ratioP2;P2;SDS_P1;SDS_P2;PMS_P1;PMS_P2;Temp;Humidity;BMP_temperature;BMP_pressure;BME280_temperature;BME280_humidity;BME280_pressure;Samples;Min_cycle;Max_cycle;Signal;HPM_P1;HPM_P2
2021/09/01 00:01:57;;;;;;;3.10;2.08;;;20.70;99.90;;;;;;6149614;23;20073;-69
2021/09/01 00:04:22;;;;;;;6.70;1.95;;;20.70;99.90;;;;;;6150033;23;20010;-69
2021/09/01 00:06:48;;;;;;;8.18;2.03;;;20.60;99.90;;;;;;6150069;23;20006;-73
2021/09/01 00:09:14;;;;;;;3.25;1.77;;;20.60;99.90;;;;;;6149582;23;20010;-70
2021/09/01 00:11:40;;;;;;;3.75;1.67;;;20.60;99.90;;;;;;6148860;23;19998;-86
2021/09/01 00:14:06;;;;;;;3.08;1.55;;;20.60;99.90;;;;;;6124942;23;20337;-70
2021/09/01 00:16:32;;;;;;;1.55;1.30;;;20.60;99.90;;;;;;6149741;23;20002;-71
2021/09/01 00:19:01;;;;;;;3.20;1.50;;;20.60;99.90;;;;;;6124937;23;20017;-76
2021/09/01 00:21:27;;;;;;;2.67;1.25;;;20.60;99.90;;;;;;6126616;23;20006;-77
2021/09/01 00:23:53;;;;;;;2.83;1.20;;;20.60;99.90;;;;;;6126829;23;20002;-70
2021/09/01 00:26:19;;;;;;;4.55;1.33;;;20.70;99.90;;;;;;6124754;23;20405;-71
2021/09/01 00:28:46;;;;;;;4.10;1.27;;;20.70;99.90;;;;;;6126820;23;20008;-76
2021/09/01 00:31:12;;;;;;;1.05;0.85;;;20.70;99.90;;;;;;6126641;23;20001;-69
2021/09/01 00:33:38;;;;;;;2.20;1.15;;;20.70;99.90;;;;;;6125157;23;20080;-69
2021/09/01 00:36:04;;;;;;;6.90;1.35;;;20.70;99.90;;;;;;6125583;23;20048;-69
2021/09/01 00:38:30;;;;;;;1.90;1.10;;;20.70;99.90;;;;;;6126963;23;19998;-70
2021/09/01 00:40:56;;;;;;;3.22;1.50;;;20.70;99.90;;;;;;6126746;23;20448;-87
2021/09/01 00:43:23;;;;;;;5.78;1.40;;;20.70;99.90;;;;;;6125930;23;20374;-73
2021/09/01 00:45:48;;;;;;;1.25;1.15;;;20.70;99.90;;;;;;6124858;23;20005;-71
2021/09/01 00:48:17;;;;;;;4.65;1.48;;;20.60;99.90;;;;;;6127275;23;19998;-69
2021/09/01 00:50:44;;;;;;;3.65;1.20;;;20.60;99.90;;;;;;6127988;23;20004;-69
2021/09/01 00:53:12;;;;;;;3.58;1.10;;;20.60;99.90;;;;;;6125627;23;20045;-79
2021/09/01 00:55:41;;;;;;;1.10;1.00;;;20.60;99.90;;;;;;6127153;23;20403;-70
2021/09/01 00:58:12;;;;;;;2.65;0.93;;;20.60;99.90;;;;;;6126802;23;20042;-87
2021/09/01 01:00:53;;;;;;;2.03;1.00;;;20.50;99.90;;;;;;6132711;23;20023;-70
2021/09/01 01:03:19;;;;;;;1.27;0.90;;;20.60;99.90;;;;;;6156312;23;20396;-73
2021/09/01 01:09:07;;;;;;;3.88;1.40;;;20.60;99.90;;;;;;6156600;23;20066;-90
2021/09/01 01:11:34;;;;;;;6.55;1.58;;;20.60;99.90;;;;;;6130184;23;20029;-86
2021/09/01 01:17:23;;;;;;;12.55;2.60;;;20.40;99.90;;;;;;6155632;23;20028;-87
2021/09/01 01:23:17;;;;;;;4.60;2.05;;;20.30;99.90;;;;;;6155691;23;20016;-89
2021/09/01 01:25:57;;;;;;;7.22;1.90;;;20.20;99.90;;;;;;6156004;23;19997;-89
2021/09/01 01:28:23;;;;;;;7.30;1.77;;;20.20;99.90;;;;;;6156330;23;20036;-90
2021/09/01 01:31:14;;;;;;;3.97;1.50;;;20.10;99.90;;;;;;6129715;23;20005;-90
2021/09/01 01:37:09;;;;;;;1.60;1.13;;;20.00;99.90;;;;;;6155920;23;20341;-86
2021/09/01 01:39:41;;;;;;;1.80;1.35;;;20.10;99.90;;;;;;6130034;23;20037;-87
2021/09/01 01:42:06;;;;;;;5.53;1.17;;;20.00;99.90;;;;;;6154422;23;20005;-87
2021/09/01 01:47:55;;;;;;;1.50;1.07;;;20.10;99.90;;;;;;6156502;23;20016;-93
2021/09/01 01:51:02;;;;;;;1.60;1.00;;;20.10;99.90;;;;;;6159233;23;20228;-86
2021/09/01 01:53:32;;;;;;;1.40;0.95;;;20.10;99.90;;;;;;6008577;23;20008;-90
2021/09/01 01:59:22;;;;;;;1.30;0.93;;;20.10;99.90;;;;;;5953427;24;20027;-91
2021/09/01 02:05:43;;;;;;;2.75;1.20;;;20.00;99.90;;;;;;5952992;24;20031;-86
2021/09/01 02:08:09;;;;;;;3.30;1.35;;;20.00;99.90;;;;;;5953164;24;20032;-91
2021/09/01 02:10:39;;;;;;;2.08;1.15;;;19.90;99.90;;;;;;5952732;24;20009;-88
2021/09/01 02:19:50;;;;;;;1.60;1.50;;;19.90;99.90;;;;;;5905387;24;20064;-88
2021/09/01 02:22:16;;;;;;;8.13;1.48;;;19.90;99.90;;;;;;5952723;24;20008;-87
2021/09/01 02:24:42;;;;;;;2.45;1.30;;;19.90;99.90;;;;;;6009493;23;20010;-92
2021/09/01 02:27:07;;;;;;;5.78;1.33;;;19.80;99.90;;;;;;6074146;23;20396;-89
2021/09/01 02:29:33;;;;;;;2.83;1.30;;;19.80;99.90;;;;;;6101665;23;20085;-93
2021/09/01 02:31:59;;;;;;;1.88;1.40;;;19.70;99.90;;;;;;6102631;23;20053;-88
2021/09/01 02:34:25;;;;;;;4.47;1.33;;;19.70;99.90;;;;;;6128263;23;20009;-88
2021/09/01 02:36:53;;;;;;;2.28;1.20;;;19.70;99.90;;;;;;6126620;23;20460;-90
2021/09/01 02:39:19;;;;;;;6.10;1.50;;;19.70;99.90;;;;;;6101982;23;20433;-89
2021/09/01 02:41:45;;;;;;;3.67;1.23;;;19.70;99.90;;;;;;6103269;23;20078;-91
2021/09/01 02:44:13;;;;;;;3.00;1.20;;;19.70;99.90;;;;;;6102067;23;20017;-92
2021/09/01 02:46:42;;;;;;;1.13;1.02;;;19.70;99.90;;;;;;6102240;23;20006;-89
2021/09/01 02:49:12;;;;;;;1.15;1.05;;;19.70;99.90;;;;;;6128120;23;20001;-88
2021/09/01 02:55:07;;;;;;;2.78;1.25;;;19.70;99.90;;;;;;6127415;23;20044;-89
2021/09/01 03:04:17;;;;;;;3.88;1.20;;;19.60;99.90;;;;;;6156113;23;20032;-89
2021/09/01 03:10:15;;;;;;;4.35;1.55;;;19.60;99.90;;;;;;6157315;23;20040;-86
2021/09/01 03:12:43;;;;;;;4.53;1.30;;;19.60;99.90;;;;;;6157194;23;20420;-91
2021/09/01 03:15:10;;;;;;;2.42;1.27;;;19.60;99.90;;;;;;6157134;23;20009;-87
2021/09/01 03:17:35;;;;;;;1.67;1.45;;;19.50;99.90;;;;;;6131389;23;20012;-91
2021/09/01 04:06:09;;;;;;;5.28;1.40;;;19.60;99.90;;;;;;6183053;23;20091;-92
2021/09/01 05:07:36;;;;;;;1.73;1.00;;;23.40;99.90;;;;;;6176179;23;20029;-91
2021/09/01 05:16:24;;;;;;;2.00;1.23;;;27.40;99.90;;;;;;6185536;23;20091;-89
2021/09/01 05:19:29;;;;;;;1.50;0.80;;;27.00;99.90;;;;;;6185767;23;20450;-87
2021/09/01 05:38:44;;;;;;;4.63;1.55;;;25.70;99.90;;;;;;6186100;23;20012;-87
2021/09/01 05:44:35;;;;;;;18.00;2.00;;;27.60;99.90;;;;;;6186219;23;20093;-85
2021/09/01 05:47:08;;;;;;;8.63;1.90;;;29.40;98.90;;;;;;6159158;23;20009;-91
2021/09/01 05:49:35;;;;;;;6.15;1.30;;;30.60;96.60;;;;;;6160562;23;20094;-85
2021/09/01 05:52:02;;;;;;;3.72;1.38;;;31.90;94.10;;;;;;6185784;23;19997;-89
2021/09/01 05:54:35;;;;;;;6.72;1.50;;;33.00;91.70;;;;;;6185890;23;19998;-89
2021/09/01 06:00:31;;;;;;;;;;;34.60;86.70;;;;;;6186323;23;20075;-85
2021/09/01 06:03:23;;;;;;;5.38;1.13;;;35.40;83.70;;;;;;6187038;23;20303;-85
2021/09/01 06:05:54;;;;;;;8.43;0.88;;;35.60;79.20;;;;;;6187803;23;20001;-84
2021/09/01 06:08:23;;;;;;;0.88;0.80;;;35.80;78.10;;;;;;6161671;23;20531;-91
2021/09/01 06:11:15;;;;;;;1.08;0.80;;;35.90;77.50;;;;;;6160878;23;20051;-87
2021/09/01 06:13:49;;;;;;;;;;;35.60;77.90;;;;;;6162570;23;20012;-94
2021/09/01 06:16:14;;;;;;;4.03;0.93;;;35.60;78.00;;;;;;6162410;23;20267;-88
2021/09/01 06:22:05;;;;;;;11.73;1.02;;;35.90;75.70;;;;;;6188523;23;20020;-93
2021/09/01 06:24:34;;;;;;;4.45;0.90;;;36.40;74.50;;;;;;6188801;23;19993;-86
2021/09/01 06:27:19;;;;;;;5.50;0.80;;;36.80;73.80;;;;;;6192096;23;20004;-91
2021/09/01 06:33:11;;;;;;;6.35;0.98;;;37.70;70.30;;;;;;6191596;23;20047;-93
2021/09/01 06:35:43;;;;;;;0.95;0.70;;;38.10;68.80;;;;;;6191880;23;20032;-93
2021/09/01 06:41:30;;;;;;;3.00;0.52;;;38.50;66.90;;;;;;6191055;23;20024;-91
2021/09/01 06:51:02;;;;;;;18.63;1.30;;;39.80;67.90;;;;;;6082017;23;20008;-89
2021/09/01 06:57:28;;;;;;;39.28;3.72;;;40.10;67.50;;;;;;6187571;23;20029;-91
2021/09/01 07:03:16;;;;;;;5.07;1.17;;;39.30;66.90;;;;;;6190951;23;20024;-87
2021/09/01 07:05:53;;;;;;;5.07;1.20;;;39.70;65.80;;;;;;6186777;23;20428;-87
2021/09/01 07:08:25;;;;;;;2.60;1.00;;;40.10;65.30;;;;;;6186717;23;20088;-86
2021/09/01 07:10:51;;;;;;;8.55;1.10;;;40.70;63.00;;;;;;6187089;23;20013;-87
2021/09/01 07:13:18;;;;;;;0.70;0.50;;;41.20;61.30;;;;;;6186856;23;19997;-85
2021/09/01 07:15:44;;;;;;;4.70;0.75;;;41.80;57.40;;;;;;6159929;23;20091;-86
2021/09/01 07:18:11;;;;;;;2.10;0.60;;;41.90;57.80;;;;;;6186723;23;20440;-88
2021/09/01 07:20:37;;;;;;;2.42;0.63;;;42.00;57.30;;;;;;6186461;23;20005;-87
2021/09/01 07:23:04;;;;;;;2.25;0.60;;;42.10;57.60;;;;;;6187203;23;20008;-83
2021/09/01 07:25:32;;;;;;;4.20;0.88;;;42.60;57.00;;;;;;6160036;23;20139;-90
2021/09/01 07:27:58;;;;;;;5.05;0.85;;;42.60;56.40;;;;;;6186130;23;20005;-83
2021/09/01 07:30:23;;;;;;;4.85;0.98;;;42.90;55.70;;;;;;6186127;23;20079;-85
2021/09/01 07:32:49;;;;;;;4.20;0.52;;;43.30;55.10;;;;;;6160070;23;20503;-86
2021/09/01 07:35:15;;;;;;;19.10;0.90;;;43.90;54.70;;;;;;6185618;23;20051;-89
2021/09/01 07:37:44;;;;;;;5.47;0.60;;;44.20;54.10;;;;;;6159251;23;20313;-84
2021/09/01 07:40:11;;;;;;;5.90;0.77;;;44.10;53.60;;;;;;6185565;23;20004;-83
2021/09/01 07:42:37;;;;;;;0.93;0.50;;;43.90;53.00;;;;;;6185084;23;20503;-85
2021/09/01 07:45:03;;;;;;;1.70;0.65;;;44.10;53.40;;;;;;6185486;23;20059;-85
2021/09/01 07:47:29;;;;;;;3.38;0.60;;;44.60;51.80;;;;;;6134245;23;20005;-83
2021/09/01 07:49:55;;;;;;;23.80;0.70;;;45.10;51.40;;;;;;6185393;23;20017;-86
2021/09/01 07:52:20;;;;;;;0.60;0.60;;;45.30;50.60;;;;;;6185569;23;20001;-92
2021/09/01 07:54:46;;;;;;;1.02;0.30;;;45.10;50.70;;;;;;6185304;23;20319;-82
2021/09/01 07:57:12;;;;;;;3.63;0.63;;;44.80;50.50;;;;;;6185630;23;20057;-84
2021/09/01 07:59:37;;;;;;;2.72;0.40;;;44.90;50.20;;;;;;6185388;23;20479;-83
2021/09/01 08:02:03;;;;;;;7.18;0.70;;;45.00;50.30;;;;;;6185376;23;20079;-86
2021/09/01 08:04:29;;;;;;;2.03;0.90;;;44.40;50.00;;;;;;6158948;23;20555;-85
2021/09/01 08:06:54;;;;;;;2.58;0.80;;;44.10;50.30;;;;;;6185179;23;20029;-86
2021/09/01 08:09:20;;;;;;;4.40;0.70;;;43.50;50.40;;;;;;6184841;23;20009;-85
2021/09/01 08:11:48;;;;;;;0.80;0.60;;;43.50;50.90;;;;;;6185977;23;20055;-90
2021/09/01 08:14:14;;;;;;;0.85;0.60;;;43.30;50.70;;;;;;6185308;23;20027;-85
2021/09/01 08:16:39;;;;;;;5.47;0.50;;;43.10;51.10;;;;;;6158694;23;20510;-85
2021/09/01 08:19:05;;;;;;;1.40;0.60;;;43.60;50.70;;;;;;6186311;23;20017;-89
2021/09/01 08:21:31;;;;;;;3.97;0.55;;;43.90;49.60;;;;;;6185868;23;20005;-82
2021/09/01 08:23:56;;;;;;;1.75;0.38;;;44.30;50.00;;;;;;6186051;23;20012;-85
2021/09/01 08:26:22;;;;;;;0.52;0.50;;;44.80;49.00;;;;;;6186155;23;20005;-84
2021/09/01 08:28:49;;;;;;;3.15;0.30;;;44.80;48.40;;;;;;6185943;23;20434;-82
2021/09/01 08:31:15;;;;;;;0.70;0.50;;;44.50;48.00;;;;;;6185546;23;20013;-83
2021/09/01 08:33:41;;;;;;;1.67;0.60;;;44.40;48.80;;;;;;6159647;23;20454;-83
2021/09/01 08:36:06;;;;;;;1.05;0.50;;;44.70;50.70;;;;;;6185872;23;20001;-82
2021/09/01 08:38:32;;;;;;;2.83;0.57;;;45.00;50.70;;;;;;6160360;23;20518;-82
2021/09/01 08:40:58;;;;;;;0.35;0.35;;;45.00;50.10;;;;;;6187210;23;20083;-84
2021/09/01 08:43:24;;;;;;;1.80;0.57;;;45.00;50.00;;;;;;6159531;23;20012;-83
2021/09/01 08:45:49;;;;;;;3.33;0.60;;;44.50;49.80;;;;;;6185833;23;20484;-84
2021/09/01 08:48:16;;;;;;;0.75;0.60;;;44.10;50.40;;;;;;6185904;23;20001;-83
2021/09/01 08:50:42;;;;;;;2.33;0.65;;;43.90;52.60;;;;;;6185493;23;20040;-85
2021/09/01 08:53:08;;;;;;;2.47;0.60;;;43.80;53.50;;;;;;6186081;23;20328;-84
2021/09/01 08:55:34;;;;;;;0.77;0.50;;;43.40;53.50;;;;;;6186248;23;20030;-85
2021/09/01 08:58:01;;;;;;;1.80;0.60;;;42.40;53.90;;;;;;6160251;23;20005;-84
2021/09/01 09:00:26;;;;;;;5.95;0.77;;;41.70;53.60;;;;;;6160041;23;20082;-84
2021/09/01 09:02:53;;;;;;;5.07;0.95;;;40.90;54.30;;;;;;6184884;23;20005;-82
2021/09/01 09:05:29;;;;;;;0.95;0.50;;;40.00;55.00;;;;;;6185084;23;20032;-84
2021/09/01 09:07:55;;;;;;;7.32;1.77;;;39.30;55.30;;;;;;6158271;23;20119;-84
2021/09/01 09:10:28;;;;;;;2.13;0.57;;;38.60;56.20;;;;;;6185396;23;20064;-84
2021/09/01 09:13:00;;;;;;;1.23;0.55;;;38.10;57.00;;;;;;6158849;23;20005;-86
2021/09/01 09:15:26;;;;;;;1.52;0.50;;;37.30;58.20;;;;;;6185484;23;20492;-86
2021/09/01 09:17:52;;;;;;;9.38;0.60;;;36.50;58.50;;;;;;6184744;23;19997;-86
2021/09/01 09:20:28;;;;;;;4.15;0.70;;;35.90;58.30;;;;;;6185591;23;20008;-84
2021/09/01 09:22:55;;;;;;;0.50;0.50;;;35.60;59.80;;;;;;6186559;23;20001;-87
2021/09/01 09:25:25;;;;;;;3.58;0.88;;;35.00;61.30;;;;;;6159484;23;20009;-84
2021/09/01 09:28:03;;;;;;;1.13;0.60;;;34.80;62.50;;;;;;6186120;23;20005;-84
2021/09/01 09:30:38;;;;;;;1.67;0.82;;;34.70;62.70;;;;;;6185555;23;20433;-83
2021/09/01 09:33:10;;;;;;;4.13;1.13;;;34.40;62.40;;;;;;6186456;23;20005;-85
2021/09/01 09:35:59;;;;;;;1.30;1.13;;;34.20;64.30;;;;;;6160905;23;20005;-91
2021/09/01 09:38:45;;;;;;;1.95;0.77;;;34.10;65.60;;;;;;6188328;23;20032;-90
2021/09/01 09:41:24;;;;;;;1.92;1.05;;;34.00;65.00;;;;;;6189077;23;19997;-83
2021/09/01 09:43:52;;;;;;;4.70;0.85;;;33.70;65.20;;;;;;6188536;23;20008;-87
2021/09/01 09:46:18;;;;;;;2.55;0.70;;;33.70;65.50;;;;;;6160940;23;20012;-88
2021/09/01 09:48:46;;;;;;;5.70;0.80;;;33.60;66.00;;;;;;6161027;23;20321;-86
2021/09/01 09:51:17;;;;;;;0.82;0.70;;;33.50;67.40;;;;;;6187710;23;20016;-86
2021/09/01 09:53:46;;;;;;;2.28;0.88;;;33.10;69.30;;;;;;6162372;23;20012;-85
2021/09/01 09:56:12;;;;;;;3.20;1.30;;;32.80;70.60;;;;;;6188725;23;20371;-84
2021/09/01 09:58:41;;;;;;;2.78;1.10;;;32.80;70.10;;;;;;6188923;23;20047;-84
2021/09/01 10:01:09;;;;;;;3.22;1.05;;;32.70;70.50;;;;;;6163570;23;20368;-86
2021/09/01 10:03:35;;;;;;;7.05;0.82;;;32.50;70.40;;;;;;6187844;23;20536;-87
2021/09/01 10:06:03;;;;;;;1.98;1.20;;;32.20;70.90;;;;;;6188740;23;20055;-86
2021/09/01 10:08:30;;;;;;;1.20;0.80;;;32.00;71.20;;;;;;6188542;23;20013;-83
2021/09/01 10:10:59;;;;;;;1.92;0.80;;;31.90;71.60;;;;;;6188283;23;20013;-86
2021/09/01 10:13:27;;;;;;;9.32;0.93;;;31.40;72.40;;;;;;6188914;23;20036;-88
2021/09/01 10:15:59;;;;;;;10.13;1.15;;;30.90;73.40;;;;;;6162159;23;20341;-89
2021/09/01 10:18:25;;;;;;;;;;;30.50;74.70;;;;;;6188042;23;20004;-86
2021/09/01 10:20:51;;;;;;;4.38;0.80;;;30.30;75.50;;;;;;6160901;23;20307;-87
2021/09/01 10:23:17;;;;;;;2.22;0.80;;;30.20;76.10;;;;;;6187559;23;20004;-95
2021/09/01 10:25:51;;;;;;;1.63;0.90;;;30.00;75.40;;;;;;6188228;23;20363;-85
2021/09/01 10:28:20;;;;;;;1.42;0.70;;;29.60;75.90;;;;;;6161130;23;20005;-86
2021/09/01 10:31:12;;;;;;;1.85;0.90;;;29.40;77.40;;;;;;6187001;23;20091;-85
2021/09/01 10:33:45;;;;;;;3.50;0.88;;;29.50;77.10;;;;;;6187117;23;20029;-86
2021/09/01 10:36:26;;;;;;;1.17;0.93;;;29.40;77.20;;;;;;6160957;23;20031;-88
2021/09/01 10:39:10;;;;;;;6.00;0.88;;;29.20;77.80;;;;;;6187931;23;20450;-90
2021/09/01 10:41:38;;;;;;;3.97;1.00;;;29.10;78.10;;;;;;6161027;23;20051;-83
2021/09/01 10:44:20;;;;;;;3.58;0.82;;;29.20;78.40;;;;;;6186896;23;20064;-86
2021/09/01 10:46:54;;;;;;;3.10;1.10;;;29.40;78.50;;;;;;6187297;23;20092;-89
2021/09/01 10:49:25;;;;;;;1.52;0.80;;;29.40;79.20;;;;;;6186816;23;20009;-88
2021/09/01 10:51:53;;;;;;;5.13;0.77;;;29.40;78.20;;;;;;6188903;23;20001;-89
2021/09/01 10:54:45;;;;;;;1.73;0.65;;;29.30;77.10;;;;;;6161685;23;20001;-87
2021/09/01 10:57:22;;;;;;;1.45;0.80;;;29.30;78.20;;;;;;6180194;23;20084;-90
2021/09/01 10:59:47;;;;;;;4.88;1.10;;;29.20;77.00;;;;;;6187391;23;20128;-88
2021/09/01 11:02:20;;;;;;;2.97;1.48;;;29.30;76.40;;;;;;6161294;23;20005;-90
2021/09/01 11:04:46;;;;;;;3.28;0.93;;;29.30;75.70;;;;;;6161402;23;20008;-91
2021/09/01 11:07:19;;;;;;;5.75;0.93;;;29.30;74.90;;;;;;6161611;23;20025;-89
2021/09/01 11:09:50;;;;;;;4.53;0.93;;;29.10;75.40;;;;;;6160885;23;20063;-90
2021/09/01 11:12:21;;;;;;;8.25;0.93;;;29.10;76.60;;;;;;6160870;23;20033;-93
2021/09/01 11:14:54;;;;;;;2.25;1.30;;;29.00;77.50;;;;;;6161940;23;20001;-94
2021/09/01 11:17:22;;;;;;;27.17;20.70;;;29.10;76.60;;;;;;6186644;23;20005;-86
2021/09/01 11:19:51;;;;;;;6.30;2.70;;;29.30;76.50;;;;;;6186258;23;20001;-88
2021/09/01 11:22:19;;;;;;;4.72;0.70;;;29.50;76.70;;;;;;6160123;23;20001;-86
2021/09/01 11:24:59;;;;;;;6.55;0.98;;;29.60;76.30;;;;;;6186671;23;20001;-85
2021/09/01 11:27:27;;;;;;;2.20;1.10;;;29.70;75.30;;;;;;6160222;23;20028;-86
2021/09/01 11:30:12;;;;;;;4.28;0.90;;;29.80;75.40;;;;;;6160154;23;20017;-86
2021/09/01 11:32:40;;;;;;;2.10;0.75;;;29.60;76.50;;;;;;6159974;23;20005;-89
2021/09/01 11:35:09;;;;;;;3.97;0.80;;;29.30;76.50;;;;;;6160562;23;20001;-86
2021/09/01 11:37:35;;;;;;;1.17;0.80;;;29.20;77.00;;;;;;6187240;23;20008;-86
2021/09/01 11:40:02;;;;;;;0.80;0.80;;;29.20;76.40;;;;;;6158718;23;20001;-87
2021/09/01 11:42:28;;;;;;;4.10;0.82;;;29.10;76.20;;;;;;6186000;23;20088;-87
2021/09/01 11:44:59;;;;;;;0.80;0.70;;;29.00;77.20;;;;;;6185407;23;20013;-87
2021/09/01 11:47:25;;;;;;;2.17;0.88;;;29.10;76.90;;;;;;6159464;23;20012;-86
2021/09/01 11:49:56;;;;;;;3.17;1.10;;;29.20;77.00;;;;;;6158434;23;20487;-87
2021/09/01 11:52:28;;;;;;;1.23;0.80;;;29.40;76.90;;;;;;6186116;23;19997;-87
2021/09/01 11:54:54;;;;;;;2.00;0.90;;;29.50;76.70;;;;;;6159025;23;20017;-87
2021/09/01 11:57:28;;;;;;;2.72;0.68;;;29.70;77.00;;;;;;6186073;23;20092;-87
2021/09/01 11:59:56;;;;;;;4.55;1.00;;;29.70;76.50;;;;;;6159311;23;20096;-87
2021/09/01 12:02:26;;;;;;;2.42;0.90;;;29.70;77.00;;;;;;6185356;23;19997;-86
2021/09/01 12:04:52;;;;;;;4.85;1.00;;;29.80;77.60;;;;;;6158939;23;20011;-88
2021/09/01 12:07:32;;;;;;;4.60;1.10;;;29.80;80.90;;;;;;6158721;23;20027;-87
2021/09/01 12:10:03;;;;;;;2.58;0.88;;;29.70;82.00;;;;;;6158710;23;20481;-88
2021/09/01 12:12:46;;;;;;;1.17;0.80;;;29.60;82.50;;;;;;6186907;23;20005;-86
2021/09/01 12:15:14;;;;;;;2.67;1.00;;;29.40;81.50;;;;;;6185674;23;20463;-85
2021/09/01 12:17:41;;;;;;;5.63;1.05;;;29.20;82.10;;;;;;6159598;23;20339;-85
2021/09/01 12:20:16;;;;;;;5.65;1.67;;;29.10;81.70;;;;;;6186486;23;20327;-85
2021/09/01 12:22:44;;;;;;;7.05;1.02;;;29.00;80.80;;;;;;6186688;23;20363;-86
2021/09/01 12:25:16;;;;;;;5.20;0.98;;;28.90;81.40;;;;;;6185991;23;20001;-86
2021/09/01 12:28:17;;;;;;;2.17;0.80;;;28.80;81.10;;;;;;6159619;23;20012;-86
2021/09/01 12:30:48;;;;;;;7.07;0.80;;;28.70;81.30;;;;;;6160882;23;20019;-86
2021/09/01 12:33:18;;;;;;;7.07;0.70;;;28.60;81.70;;;;;;6159695;23;20092;-86
2021/09/01 12:35:55;;;;;;;116.47;24.98;;;28.60;82.20;;;;;;6186116;23;20459;-86
2021/09/01 12:38:22;;;;;;;100.05;65.28;;;28.40;82.70;;;;;;6159524;23;19997;-87
2021/09/01 12:40:48;;;;;;;8.02;4.38;;;28.40;82.80;;;;;;6159382;23;20001;-87
2021/09/01 12:43:14;;;;;;;1.48;0.95;;;28.40;83.80;;;;;;6159663;23;20016;-88
2021/09/01 12:45:44;;;;;;;2.13;0.98;;;28.20;90.70;;;;;;6160240;23;20009;-86
2021/09/01 12:48:11;;;;;;;4.13;1.42;;;28.20;90.70;;;;;;6186812;23;20127;-88
2021/09/01 12:50:42;;;;;;;7.57;1.15;;;28.20;85.90;;;;;;6160215;23;20067;-88
2021/09/01 12:53:11;;;;;;;3.08;1.15;;;28.10;83.50;;;;;;6160553;23;20009;-87
2021/09/01 12:55:39;;;;;;;10.63;1.15;;;28.30;82.40;;;;;;6160822;23;20009;-89
2021/09/01 12:58:04;;;;;;;5.13;1.20;;;28.30;82.10;;;;;;6185771;23;20054;-87
2021/09/01 13:00:30;;;;;;;1.13;1.00;;;28.20;80.50;;;;;;6159673;23;20029;-87
2021/09/01 13:02:56;;;;;;;1.58;1.00;;;28.20;80.90;;;;;;6159873;23;20005;-87
2021/09/01 13:05:22;;;;;;;7.85;1.52;;;28.20;80.80;;;;;;6160418;23;20444;-87
2021/09/01 13:07:49;;;;;;;9.13;1.15;;;28.30;81.30;;;;;;6158998;23;20020;-88
2021/09/01 13:10:17;;;;;;;3.42;1.00;;;28.20;80.70;;;;;;6160498;23;20024;-87
2021/09/01 13:12:44;;;;;;;3.55;1.00;;;28.20;81.70;;;;;;6158933;23;20064;-86
2021/09/01 13:15:10;;;;;;;3.58;1.08;;;28.30;83.10;;;;;;6186098;23;20005;-86
2021/09/01 13:17:45;;;;;;;3.80;1.63;;;28.30;84.30;;;;;;6159385;23;20021;-85
2021/09/01 13:20:19;;;;;;;7.18;2.22;;;28.20;85.00;;;;;;6186355;23;20001;-86
2021/09/01 13:22:45;;;;;;;18.88;5.40;;;28.10;84.00;;;;;;6160049;23;20009;-85
2021/09/01 13:25:13;;;;;;;19.70;9.10;;;28.10;82.80;;;;;;6159961;23;20020;-85
2021/09/01 13:27:40;;;;;;;4.13;1.58;;;28.10;82.90;;;;;;6159210;23;20015;-84
2021/09/01 13:30:07;;;;;;;6.70;1.33;;;28.20;84.30;;;;;;6159056;23;20013;-84
2021/09/01 13:32:33;;;;;;;3.53;1.00;;;28.10;84.00;;;;;;6185753;23;20068;-85
2021/09/01 13:34:59;;;;;;;7.53;1.75;;;28.10;84.70;;;;;;6185883;23;20062;-86
2021/09/01 13:37:25;;;;;;;10.10;3.33;;;28.10;84.80;;;;;;6160160;23;20001;-86
2021/09/01 13:39:50;;;;;;;5.07;1.50;;;28.10;85.70;;;;;;6185344;23;19997;-88
2021/09/01 13:42:16;;;;;;;2.60;1.60;;;28.10;84.60;;;;;;6159312;23;20012;-86
2021/09/01 13:44:43;;;;;;;3.55;1.48;;;28.10;85.80;;;;;;6159012;23;20009;-86
2021/09/01 13:47:08;;;;;;;3.47;1.15;;;28.20;85.80;;;;;;6159594;23;20005;-85
2021/09/01 13:49:34;;;;;;;7.57;1.75;;;28.10;84.30;;;;;;6159036;23;20511;-86
2021/09/01 13:52:01;;;;;;;3.13;1.30;;;28.10;83.90;;;;;;6185974;23;20327;-85
2021/09/01 13:54:27;;;;;;;4.03;1.50;;;28.10;83.30;;;;;;6185716;23;19997;-86
2021/09/01 13:56:53;;;;;;;5.90;1.25;;;28.10;82.10;;;;;;6185962;23;20054;-85
2021/09/01 13:59:19;;;;;;;9.63;1.60;;;28.10;81.80;;;;;;6185734;23;20024;-85
2021/09/01 14:01:45;;;;;;;4.38;2.08;;;28.10;82.10;;;;;;6159694;23;20084;-86
2021/09/01 14:04:11;;;;;;;9.43;1.50;;;28.10;83.00;;;;;;6186355;23;20651;-86
2021/09/01 14:06:37;;;;;;;1.88;1.23;;;28.20;81.60;;;;;;6158887;23;20012;-87
2021/09/01 14:09:06;;;;;;;2.47;1.00;;;28.20;80.90;;;;;;6186311;23;20005;-85
2021/09/01 14:11:32;;;;;;;2.65;0.95;;;28.20;81.00;;;;;;6159489;23;20444;-85
2021/09/01 14:13:58;;;;;;;3.15;1.50;;;28.20;81.90;;;;;;6185741;23;20004;-85
2021/09/01 14:16:23;;;;;;;6.82;1.58;;;28.10;80.50;;;;;;6186079;23;20005;-84
2021/09/01 14:18:50;;;;;;;2.03;1.27;;;28.20;80.10;;;;;;6159458;23;20047;-85
2021/09/01 14:21:19;;;;;;;13.20;1.88;;;28.20;79.60;;;;;;6159876;23;20004;-79
2021/09/01 14:23:45;;;;;;;13.77;11.25;;;28.10;79.70;;;;;;6186065;23;20004;-80
2021/09/01 14:26:11;;;;;;;120.90;88.88;;;28.20;78.70;;;;;;6187218;23;20005;-79
2021/09/01 14:28:38;;;;;;;17.60;9.63;;;28.20;78.00;;;;;;6187347;23;20009;-80
2021/09/01 14:31:03;;;;;;;3.63;1.38;;;28.20;79.00;;;;;;6186922;23;20400;-81
2021/09/01 14:33:29;;;;;;;1.45;0.80;;;28.20;79.00;;;;;;6187112;23;19998;-80
2021/09/01 14:35:55;;;;;;;3.58;1.00;;;28.10;77.90;;;;;;6186994;23;19997;-82
2021/09/01 14:38:21;;;;;;;5.05;0.95;;;28.00;78.00;;;;;;6186892;23;19997;-80
2021/09/01 14:40:47;;;;;;;5.53;1.90;;;28.00;79.30;;;;;;6186580;23;20490;-81
2021/09/01 14:43:14;;;;;;;4.53;1.70;;;28.00;81.40;;;;;;6186836;23;19997;-80
2021/09/01 14:45:40;;;;;;;7.45;1.38;;;28.00;82.70;;;;;;6186890;23;20008;-80
2021/09/01 14:48:06;;;;;;;1.80;0.98;;;28.00;85.10;;;;;;6189417;23;20001;-81
2021/09/01 14:50:32;;;;;;;5.97;1.35;;;28.00;84.40;;;;;;6186553;23;20063;-82
2021/09/01 14:52:58;;;;;;;3.10;0.90;;;27.90;82.10;;;;;;6186840;23;20001;-79
2021/09/01 14:55:24;;;;;;;17.30;2.03;;;27.80;81.30;;;;;;6186639;23;20013;-80
2021/09/01 14:57:50;;;;;;;10.32;1.10;;;27.80;81.70;;;;;;6186883;23;20371;-80
2021/09/01 15:00:16;;;;;;;10.38;3.03;;;27.70;84.40;;;;;;6186790;23;20009;-80
2021/09/01 15:02:42;;;;;;;4.53;1.35;;;27.70;85.50;;;;;;6186874;23;20005;-81
2021/09/01 15:05:11;;;;;;;4.68;1.15;;;27.70;85.90;;;;;;6186639;23;19997;-80
2021/09/01 15:07:37;;;;;;;4.28;0.80;;;27.70;87.40;;;;;;6186388;23;20329;-80
2021/09/01 15:10:03;;;;;;;1.90;1.08;;;27.70;89.40;;;;;;6186631;23;20429;-79
2021/09/01 15:12:29;;;;;;;2.22;0.80;;;27.60;88.30;;;;;;6186513;23;20325;-79
2021/09/01 15:14:55;;;;;;;6.05;1.00;;;27.40;88.70;;;;;;6187266;23;20309;-79
2021/09/01 15:17:21;;;;;;;7.90;1.40;;;27.30;89.70;;;;;;6186698;23;20004;-79
2021/09/01 15:19:47;;;;;;;1.80;1.33;;;27.10;89.20;;;;;;6186774;23;20313;-79
2021/09/01 15:22:12;;;;;;;7.65;3.15;;;27.10;89.70;;;;;;6186746;23;20013;-79
2021/09/01 15:24:39;;;;;;;12.20;2.88;;;27.10;90.70;;;;;;6186679;23;20001;-79
2021/09/01 15:27:05;;;;;;;2.80;2.50;;;27.10;91.00;;;;;;6186399;23;20033;-78
2021/09/01 15:29:31;;;;;;;8.35;2.80;;;27.10;90.80;;;;;;6186710;23;20012;-79
2021/09/01 15:31:59;;;;;;;6.53;3.03;;;27.20;90.60;;;;;;6186432;23;20032;-79
2021/09/01 15:34:27;;;;;;;9.18;1.80;;;27.20;90.50;;;;;;6186293;23;20065;-82
2021/09/01 15:36:53;;;;;;;9.50;1.80;;;27.30;90.80;;;;;;6185995;23;20072;-79
2021/09/01 15:39:19;;;;;;;2.28;1.23;;;27.30;91.40;;;;;;6186674;23;20027;-79
2021/09/01 15:41:45;;;;;;;2.88;1.10;;;27.20;90.90;;;;;;6186445;23;20008;-80
2021/09/01 15:44:14;;;;;;;5.40;1.45;;;27.20;90.80;;;;;;6186437;23;20009;-79
2021/09/01 15:46:49;;;;;;;5.78;1.33;;;27.10;90.60;;;;;;6186489;23;20005;-79
2021/09/01 15:49:14;;;;;;;2.20;1.38;;;27.00;91.20;;;;;;6186215;23;20000;-80
2021/09/01 15:51:42;;;;;;;7.20;0.90;;;27.00;91.40;;;;;;6186249;23;20005;-79
2021/09/01 15:54:10;;;;;;;3.47;1.00;;;26.90;92.00;;;;;;6186268;23;20025;-79
2021/09/01 15:56:41;;;;;;;4.93;1.38;;;26.90;92.50;;;;;;6185995;23;20001;-79
2021/09/01 15:59:09;;;;;;;14.55;1.25;;;27.00;91.40;;;;;;6185871;23;20007;-80
2021/09/01 16:01:41;;;;;;;1.40;0.90;;;27.00;90.30;;;;;;6186445;23;20005;-80
2021/09/01 16:04:08;;;;;;;10.77;1.10;;;27.00;90.90;;;;;;6186118;23;20000;-80
2021/09/01 16:06:38;;;;;;;3.25;1.00;;;27.10;92.10;;;;;;6186162;23;20009;-80
2021/09/01 16:09:05;;;;;;;7.40;1.02;;;27.10;93.20;;;;;;6185977;23;20009;-81
2021/09/01 16:11:33;;;;;;;1.83;0.88;;;27.00;93.90;;;;;;6186017;23;20016;-80
2021/09/01 16:14:15;;;;;;;1.35;0.90;;;27.00;94.00;;;;;;6186248;23;20077;-82
2021/09/01 16:16:47;;;;;;;8.57;1.60;;;26.90;94.50;;;;;;6186026;23;20001;-80
2021/09/01 16:19:31;;;;;;;2.38;1.15;;;26.90;94.20;;;;;;6159596;23;20499;-80